createdAt,value
2022-08-26T00:01:29.098Z,6.60
2022-08-26T00:05:31.607Z,5.67
2022-08-26T00:09:33.871Z,9.03
2022-08-26T00:13:41.355Z,9.87
2022-08-26T00:17:51.993Z,10.27
2022-08-26T00:21:53.817Z,14.03
2022-08-26T00:25:55.387Z,19.30
2022-08-26T00:29:58.385Z,19.07
2022-08-26T00:34:01.316Z,21.27
2022-08-26T00:38:03.727Z,22.47
2022-08-26T00:42:05.487Z,24.13
2022-08-26T00:46:10.196Z,26.90
2022-08-26T00:50:16.539Z,27.77
2022-08-26T00:54:22.638Z,30.77
2022-08-26T00:58:26.674Z,33.70
2022-08-26T01:02:29.382Z,34.53
2022-08-26T01:06:32.870Z,37.70
2022-08-26T01:10:35.436Z,40.67
2022-08-26T01:14:38.030Z,39.60
2022-08-26T01:18:42.262Z,40.63
2022-08-26T01:22:53.179Z,40.33
2022-08-26T01:26:57.669Z,39.03
2022-08-26T01:31:01.361Z,38.57
2022-08-26T01:35:03.402Z,37.80
2022-08-26T01:39:07.737Z,37.83
2022-08-26T01:43:12.693Z,37.20
2022-08-26T01:47:16.602Z,36.63
2022-08-26T01:51:21.888Z,38.47
2022-08-26T01:55:32.213Z,35.83
2022-08-26T01:59:35.432Z,34.83
2022-08-26T02:03:42.987Z,34.30
2022-08-26T02:07:45.719Z,33.00
2022-08-26T02:11:51.068Z,34.50
2022-08-26T02:15:54.018Z,33.37
2022-08-26T02:19:57.335Z,31.27
2022-08-26T02:24:09.118Z,30.77
2022-08-26T02:28:13.250Z,30.63
2022-08-26T02:32:15.014Z,32.90
2022-08-26T02:36:21.454Z,32.50
2022-08-26T02:40:26.310Z,30.70
2022-08-26T02:44:29.425Z,32.33
2022-08-26T02:48:32.244Z,31.70
2022-08-26T02:52:34.887Z,31.20
2022-08-26T02:56:36.667Z,32.83
2022-08-26T03:00:39.846Z,31.97
2022-08-26T03:04:57.744Z,31.63
2022-08-26T03:09:05.141Z,32.23
2022-08-26T03:13:06.960Z,31.33
2022-08-26T03:17:10.200Z,31.37
2022-08-26T03:21:13.940Z,31.90
2022-08-26T03:25:16.480Z,29.93
2022-08-26T03:29:18.306Z,29.87
2022-08-26T03:33:21.403Z,30.40
2022-08-26T03:37:23.228Z,29.13
2022-08-26T03:41:24.950Z,29.97
2022-08-26T03:45:27.557Z,28.40
2022-08-26T03:49:31.701Z,28.63
2022-08-26T03:53:34.178Z,28.73
2022-08-26T03:57:38.746Z,26.00
2022-08-26T04:01:41.255Z,24.57
2022-08-26T04:05:44.460Z,25.87
2022-08-26T04:09:46.452Z,24.33
2022-08-26T04:13:48.669Z,23.17
2022-08-26T04:17:51.676Z,25.20
2022-08-26T04:21:54.875Z,23.67
2022-08-26T04:25:56.829Z,22.57
2022-08-26T04:29:58.717Z,22.53
2022-08-26T04:34:00.589Z,21.50
2022-08-26T04:38:03.588Z,21.13
2022-08-26T04:42:07.716Z,20.20
2022-08-26T04:46:10.616Z,20.43
2022-08-26T04:50:14.852Z,19.50
2022-08-26T04:54:18.048Z,19.87
2022-08-26T04:58:21.572Z,18.70
2022-08-26T05:02:23.340Z,17.77
2022-08-26T05:06:26.928Z,18.13
2022-08-26T05:10:30.531Z,17.47
2022-08-26T05:14:32.820Z,16.60
2022-08-26T05:18:36.948Z,15.90
2022-08-26T05:22:38.560Z,15.57
2022-08-26T05:26:42.222Z,14.80
2022-08-26T05:30:46.519Z,14.40
2022-08-26T05:34:48.162Z,15.07
2022-08-26T05:38:53.210Z,14.07
2022-08-26T05:42:56.207Z,13.67
2022-08-26T05:46:58.378Z,12.30
2022-08-26T05:51:03.524Z,11.43
2022-08-26T05:55:06.112Z,12.83
2022-08-26T05:59:14.613Z,11.60
2022-08-26T06:03:16.262Z,10.53
2022-08-26T06:07:18.492Z,10.87
2022-08-26T06:11:22.599Z,10.43
2022-08-26T06:15:27.438Z,9.50
2022-08-26T06:19:33.008Z,9.50
2022-08-26T06:23:35.981Z,9.13
2022-08-26T06:27:37.774Z,9.50
2022-08-26T06:31:40.714Z,8.70
2022-08-26T06:35:43.336Z,8.90
2022-08-26T06:39:45.173Z,8.00
2022-08-26T06:43:47.886Z,8.33
2022-08-26T06:47:50.797Z,8.40
2022-08-26T06:51:53.135Z,7.33
2022-08-26T06:55:54.688Z,7.57
2022-08-26T06:59:56.423Z,7.93
2022-08-26T07:04:03.661Z,7.90
2022-08-26T07:08:10.088Z,7.40
2022-08-26T07:12:12.264Z,6.93
2022-08-26T07:16:16.707Z,6.57
2022-08-26T07:20:19.676Z,7.10
2022-08-26T07:24:21.589Z,6.50
2022-08-26T07:28:23.453Z,6.80
2022-08-26T07:32:25.286Z,6.27
2022-08-26T07:36:28.651Z,6.33
2022-08-26T07:40:31.096Z,7.30
2022-08-26T07:44:33.153Z,7.00
2022-08-26T07:48:35.495Z,6.90
2022-08-26T07:52:38.839Z,6.73
2022-08-26T07:56:41.529Z,7.30
2022-08-26T08:00:46.452Z,6.60
2022-08-26T08:04:48.623Z,6.60
2022-08-26T08:08:51.708Z,7.17
2022-08-26T08:12:53.618Z,8.23
2022-08-26T08:16:55.420Z,8.63
2022-08-26T08:21:10.911Z,10.57
2022-08-26T08:25:20.767Z,9.30
2022-08-26T08:29:22.482Z,10.13
2022-08-26T08:33:24.890Z,9.47
2022-08-26T08:37:26.539Z,8.53
2022-08-26T08:41:46.737Z,9.07
2022-08-26T08:45:52.326Z,8.90
2022-08-26T08:50:02.943Z,7.50
2022-08-26T08:54:05.018Z,9.17
2022-08-26T08:58:19.655Z,8.97
2022-08-26T09:02:30.198Z,8.23
2022-08-26T09:06:32.454Z,7.83
2022-08-26T09:10:38.315Z,8.10
2022-08-26T09:14:48.120Z,6.97
2022-08-26T09:19:05.714Z,6.80
2022-08-26T09:23:09.808Z,6.43
2022-08-26T09:27:11.630Z,8.30
2022-08-26T09:31:21.817Z,8.33
2022-08-26T09:35:27.945Z,8.80
2022-08-26T09:39:34.274Z,9.53
2022-08-26T09:43:38.968Z,8.23
2022-08-26T09:47:54.007Z,8.93
2022-08-26T09:52:15.580Z,9.00
2022-08-26T09:56:28.692Z,8.93
2022-08-26T10:00:33.335Z,10.10
2022-08-26T10:04:37.401Z,9.27
2022-08-26T10:08:42.692Z,7.60
2022-08-26T10:12:58.823Z,8.30
2022-08-26T10:17:03.706Z,7.87
2022-08-26T10:21:14.425Z,8.60
2022-08-26T10:25:24.430Z,7.03
2022-08-26T10:29:31.237Z,6.93
2022-08-26T10:33:33.453Z,6.50
2022-08-26T10:37:40.575Z,6.03
2022-08-26T10:41:45.301Z,5.80
2022-08-26T10:45:50.689Z,5.30
2022-08-26T10:49:56.517Z,6.77
2022-08-26T10:54:08.027Z,5.63
2022-08-26T10:58:26.153Z,5.93
2022-08-26T11:02:36.655Z,5.33
2022-08-26T11:06:38.243Z,5.00
2022-08-26T11:10:59.054Z,5.00
2022-08-26T11:15:01.175Z,4.40
2022-08-26T11:19:03.899Z,4.53
2022-08-26T11:23:37.142Z,3.73
2022-08-26T11:28:05.404Z,3.53
2022-08-26T11:32:24.641Z,3.70
2022-08-26T11:36:58.096Z,3.43
2022-08-26T11:41:08.943Z,3.40
2022-08-26T11:45:21.843Z,3.87
2022-08-26T11:49:24.086Z,3.77
2022-08-26T11:53:26.166Z,3.27
2022-08-26T11:57:28.474Z,2.90
2022-08-26T12:01:33.594Z,3.07
2022-08-26T12:05:42.482Z,4.03
2022-08-26T12:09:53.121Z,3.93
2022-08-26T12:13:57.587Z,3.67
2022-08-26T12:18:16.977Z,3.03
2022-08-26T12:22:23.709Z,3.07
2022-08-26T12:26:28.502Z,3.13
2022-08-26T12:30:30.205Z,2.90
2022-08-26T12:34:34.349Z,2.63
2022-08-26T12:38:37.147Z,3.07
2022-08-26T12:42:41.519Z,3.13
2022-08-26T12:46:45.663Z,3.20
2022-08-26T12:50:53.018Z,2.97
2022-08-26T12:54:56.995Z,3.08
2022-08-26T12:59:05.860Z,3.23
2022-08-26T13:03:29.350Z,2.83
2022-08-26T13:07:32.465Z,2.50
2022-08-26T13:11:54.845Z,2.70
2022-08-26T13:15:56.400Z,3.30
2022-08-26T13:20:03.318Z,2.80
2022-08-26T13:24:09.826Z,2.90
2022-08-26T13:28:11.328Z,2.50
2022-08-26T13:32:13.813Z,2.93
2022-08-26T13:36:15.319Z,2.37
2022-08-26T13:40:18.494Z,2.50
2022-08-26T13:44:20.202Z,2.63
2022-08-26T13:48:23.602Z,2.63
2022-08-26T13:52:30.195Z,2.50
2022-08-26T13:56:35.136Z,2.50
2022-08-26T14:00:37.940Z,2.50
2022-08-26T14:04:39.467Z,2.93
2022-08-26T14:08:41.919Z,3.13
2022-08-26T14:12:45.143Z,2.30
2022-08-26T14:16:58.619Z,2.70
2022-08-26T14:21:02.199Z,3.23
2022-08-26T14:25:04.259Z,2.37
2022-08-26T14:29:12.385Z,2.93
2022-08-26T14:33:19.047Z,2.80
2022-08-26T14:37:21.438Z,3.20
2022-08-26T14:41:23.731Z,3.00
2022-08-26T14:45:28.105Z,3.00
2022-08-26T14:49:30.187Z,3.00
2022-08-26T14:53:31.851Z,2.33
2022-08-26T14:57:33.663Z,3.00
2022-08-26T15:01:36.588Z,2.47
2022-08-26T15:05:38.331Z,2.63
2022-08-26T15:09:39.975Z,3.00
2022-08-26T15:13:41.518Z,2.50
2022-08-26T15:17:44.561Z,2.40
2022-08-26T15:21:47.445Z,2.53
2022-08-26T15:25:49.151Z,2.60
2022-08-26T15:29:51.198Z,2.23
2022-08-26T15:33:54.339Z,3.00
2022-08-26T15:37:55.968Z,2.57
2022-08-26T15:41:57.740Z,2.50
2022-08-26T15:45:59.672Z,2.27
2022-08-26T15:50:02.953Z,2.67
2022-08-26T15:54:05.718Z,2.60
2022-08-26T15:58:12.070Z,3.00
2022-08-26T16:02:14.718Z,2.50
2022-08-26T16:06:19.830Z,2.37
2022-08-26T16:10:21.514Z,2.83
2022-08-26T16:14:25.022Z,2.23
2022-08-26T16:18:26.730Z,2.67
2022-08-26T16:22:31.551Z,2.37
2022-08-26T16:26:37.886Z,2.33
2022-08-26T16:30:40.139Z,2.80
2022-08-26T16:34:56.056Z,2.53
2022-08-26T16:38:59.718Z,2.80
2022-08-26T16:43:01.843Z,2.90
2022-08-26T16:47:03.530Z,2.90
2022-08-26T16:51:05.746Z,2.60
2022-08-26T16:55:12.230Z,2.53
2022-08-26T16:59:14.010Z,2.83
2022-08-26T17:03:15.764Z,3.17
2022-08-26T17:07:17.538Z,2.80
2022-08-26T17:11:20.490Z,2.40
2022-08-26T17:15:22.623Z,2.43
2022-08-26T17:19:24.206Z,2.57
2022-08-26T17:23:25.918Z,2.43
2022-08-26T17:27:31.454Z,2.57
2022-08-26T17:31:34.128Z,1.90
2022-08-26T17:35:36.146Z,2.00
2022-08-26T17:39:37.738Z,2.00
2022-08-26T17:43:41.170Z,2.10
2022-08-26T17:47:43.126Z,4.00
2022-08-26T17:51:44.814Z,2.10
2022-08-26T17:55:46.848Z,1.97
2022-08-26T17:59:50.510Z,1.73
2022-08-26T18:04:00.096Z,1.90
2022-08-26T18:08:03.165Z,1.70
2022-08-26T18:12:05.422Z,2.40
2022-08-26T18:16:10.247Z,2.20
2022-08-26T18:20:15.650Z,2.07
2022-08-26T18:24:17.270Z,2.10
2022-08-26T18:28:19.002Z,1.80
2022-08-26T18:32:23.230Z,2.17
2022-08-26T18:36:27.081Z,1.87
2022-08-26T18:40:29.076Z,1.97
2022-08-26T18:44:30.885Z,1.77
2022-08-26T18:48:33.990Z,1.50
2022-08-26T18:52:35.821Z,1.50
2022-08-26T18:56:39.130Z,1.47
2022-08-26T19:00:40.822Z,1.70
2022-08-26T19:04:45.217Z,1.53
2022-08-26T19:08:49.762Z,1.40
2022-08-26T19:12:52.241Z,1.80
2022-08-26T19:16:56.153Z,1.80
2022-08-26T19:20:59.306Z,1.40
2022-08-26T19:25:01.081Z,1.50
2022-08-26T19:29:02.811Z,1.80
2022-08-26T19:33:04.724Z,1.47
2022-08-26T19:37:08.618Z,1.47
2022-08-26T19:41:12.238Z,1.50
2022-08-26T19:45:24.395Z,1.70
2022-08-26T19:49:27.099Z,1.30
2022-08-26T19:53:30.217Z,1.53
2022-08-26T19:57:31.707Z,2.27
2022-08-26T20:01:33.283Z,1.70
2022-08-26T20:05:35.242Z,1.50
2022-08-26T20:09:38.253Z,1.60
2022-08-26T20:13:40.124Z,1.40
2022-08-26T20:17:41.764Z,1.83
2022-08-26T20:21:43.461Z,1.53
2022-08-26T20:25:46.365Z,1.77
2022-08-26T20:29:47.909Z,1.60
2022-08-26T20:33:49.608Z,1.70
2022-08-26T20:37:51.260Z,1.70
2022-08-26T20:41:54.742Z,1.60
2022-08-26T20:45:56.433Z,1.70
2022-08-26T20:49:58.255Z,1.70
2022-08-26T20:54:00.110Z,1.90
2022-08-26T20:58:03.399Z,1.53
2022-08-26T21:02:05.144Z,1.60
2022-08-26T21:06:07.234Z,1.50
2022-08-26T21:10:10.188Z,1.57
2022-08-26T21:14:16.102Z,1.43
2022-08-26T21:18:18.589Z,1.53
2022-08-26T21:22:20.592Z,1.80
2022-08-26T21:26:22.624Z,1.83
2022-08-26T21:30:25.580Z,1.90
2022-08-26T21:34:27.076Z,1.93
2022-08-26T21:38:28.813Z,1.83
2022-08-26T21:42:33.305Z,1.67
2022-08-26T21:46:36.489Z,1.87
2022-08-26T21:50:38.271Z,1.60
2022-08-26T21:54:40.116Z,1.70
2022-08-26T21:58:52.402Z,2.10
2022-08-26T22:02:55.908Z,1.70
2022-08-26T22:06:57.658Z,1.90
2022-08-26T22:11:00.728Z,1.80
2022-08-26T22:15:02.288Z,1.80
2022-08-26T22:19:05.807Z,1.80
2022-08-26T22:23:07.569Z,1.83
2022-08-26T22:27:09.104Z,1.70
2022-08-26T22:31:13.360Z,1.70
2022-08-26T22:35:28.466Z,1.73
2022-08-26T22:39:31.360Z,1.97
2022-08-26T22:43:32.895Z,1.70
2022-08-26T22:47:35.387Z,1.97
2022-08-26T22:51:40.227Z,1.67
2022-08-26T22:55:42.209Z,1.67
2022-08-26T22:59:44.388Z,2.00
2022-08-26T23:03:46.067Z,2.20
2022-08-26T23:07:49.036Z,2.70
2022-08-26T23:11:50.675Z,3.43
2022-08-26T23:16:00.500Z,4.77
2022-08-26T23:20:03.003Z,9.03
2022-08-26T23:24:07.083Z,9.33
2022-08-26T23:28:09.097Z,8.57
2022-08-26T23:32:11.154Z,9.03
2022-08-26T23:36:17.481Z,10.60
2022-08-26T23:40:29.590Z,17.63
2022-08-26T23:44:32.223Z,21.03
2022-08-26T23:48:33.947Z,22.80
2022-08-26T23:52:35.791Z,24.37
2022-08-26T23:56:39.376Z,25.73
